Time;durP1;ratioP1;P1;durP2;ratioP2;P2;SDS_P1;SDS_P2;PMS_P1;PMS_P2;Temp;Humidity;BMP_temperature;BMP_pressure;BME280_temperature;BME280_humidity;BME280_pressure;Samples;Min_cycle;Max_cycle;Signal;HPM_P1;HPM_P2
2022/06/25 00:01:18;;;;;;;15.38;8.48;;;18.60;99.90;;;;;;5023005;28;20082;-72
2022/06/25 00:03:43;;;;;;;12.73;7.80;;;18.60;99.90;;;;;;5023254;28;20036;-72
2022/06/25 00:06:09;;;;;;;13.18;7.95;;;18.50;99.90;;;;;;5023307;28;20069;-72
2022/06/25 00:08:36;;;;;;;17.20;9.02;;;18.50;99.90;;;;;;5023663;28;20030;-71
2022/06/25 00:11:03;;;;;;;11.55;7.50;;;18.50;99.90;;;;;;5022630;28;20708;-71
2022/06/25 00:13:29;;;;;;;15.07;7.53;;;18.50;99.90;;;;;;5023514;28;20038;-71
2022/06/25 00:15:55;;;;;;;16.88;7.90;;;18.50;99.90;;;;;;5023050;28;20044;-70
2022/06/25 00:18:20;;;;;;;11.60;6.43;;;18.50;99.90;;;;;;5023095;28;20117;-71
2022/06/25 00:20:46;;;;;;;10.80;6.90;;;18.50;99.90;;;;;;5023222;28;20038;-69
2022/06/25 00:23:12;;;;;;;15.32;8.70;;;18.50;99.90;;;;;;5022270;28;20024;-70
2022/06/25 00:25:38;;;;;;;15.80;8.23;;;18.40;99.90;;;;;;5023350;28;20049;-71
2022/06/25 00:28:05;;;;;;;11.20;6.85;;;18.40;99.90;;;;;;5023223;28;20018;-73
2022/06/25 00:30:31;;;;;;;15.73;8.35;;;18.40;99.90;;;;;;5022920;28;20460;-70
2022/06/25 00:32:57;;;;;;;14.05;7.90;;;18.30;99.90;;;;;;5022490;28;20060;-71
2022/06/25 00:35:24;;;;;;;12.88;7.40;;;18.30;99.90;;;;;;5022506;28;20088;-70
2022/06/25 00:37:49;;;;;;;13.13;7.70;;;18.30;99.90;;;;;;5022588;28;20021;-71
2022/06/25 00:40:15;;;;;;;17.80;8.52;;;18.30;99.90;;;;;;5022802;28;20022;-71
2022/06/25 00:42:45;;;;;;;12.95;6.50;;;18.30;99.90;;;;;;5022881;28;20041;-72
2022/06/25 00:45:12;;;;;;;11.82;7.65;;;18.30;99.90;;;;;;5021670;28;20060;-71
2022/06/25 00:47:38;;;;;;;9.43;6.97;;;18.20;99.90;;;;;;5023012;28;20041;-72
2022/06/25 00:50:05;;;;;;;11.32;7.30;;;18.20;99.90;;;;;;5022855;28;20045;-71
2022/06/25 00:52:33;;;;;;;20.38;8.95;;;18.20;99.90;;;;;;5021933;28;20109;-71
2022/06/25 00:55:10;;;;;;;11.35;6.70;;;18.30;99.90;;;;;;5022615;28;20030;-71
2022/06/25 00:57:42;;;;;;;11.68;6.68;;;18.20;99.90;;;;;;5022571;28;20068;-71
2022/06/25 01:00:11;;;;;;;9.68;7.50;;;18.20;99.90;;;;;;5022669;28;20037;-71
2022/06/25 01:02:37;;;;;;;8.77;5.65;;;18.20;99.90;;;;;;5022510;28;20101;-72
2022/06/25 01:05:12;;;;;;;13.98;6.97;;;18.10;99.90;;;;;;5022318;28;20030;-73
2022/06/25 01:07:39;;;;;;;11.18;6.97;;;18.10;99.90;;;;;;5022110;28;20026;-71
2022/06/25 01:10:07;;;;;;;12.93;6.72;;;18.20;99.90;;;;;;5022480;28;20033;-71
2022/06/25 01:12:34;;;;;;;12.25;6.43;;;18.20;99.90;;;;;;5022053;28;20084;-73
2022/06/25 01:15:09;;;;;;;9.55;6.65;;;18.20;99.90;;;;;;5021814;28;20045;-71
2022/06/25 01:17:54;;;;;;;13.52;6.97;;;18.20;99.90;;;;;;5022236;28;20037;-72
2022/06/25 01:20:25;;;;;;;12.18;5.93;;;18.20;99.90;;;;;;5021296;28;20045;-72
2022/06/25 01:22:51;;;;;;;11.45;7.07;;;18.20;99.90;;;;;;5022126;28;20052;-71
2022/06/25 01:25:16;;;;;;;13.45;7.72;;;18.20;99.90;;;;;;5020548;28;20022;-71
2022/06/25 01:27:43;;;;;;;14.52;6.93;;;18.10;99.90;;;;;;5022054;28;20018;-71
2022/06/25 01:30:11;;;;;;;15.75;7.50;;;18.10;99.90;;;;;;5022231;28;20037;-71
2022/06/25 01:32:38;;;;;;;10.90;6.30;;;18.10;99.90;;;;;;5021472;28;20022;-72
2022/06/25 01:35:06;;;;;;;12.48;7.47;;;18.10;99.90;;;;;;5021750;28;20034;-70
2022/06/25 01:37:32;;;;;;;21.95;8.45;;;18.00;99.90;;;;;;5020441;28;20121;-72
2022/06/25 01:39:58;;;;;;;15.30;8.43;;;18.00;99.90;;;;;;5021616;28;20036;-72
2022/06/25 01:45:11;;;;;;;11.68;6.35;;;17.90;99.90;;;;;;5021152;28;20036;-70
2022/06/25 01:47:37;;;;;;;9.90;6.78;;;17.90;99.90;;;;;;5021373;28;20025;-72
2022/06/25 01:50:04;;;;;;;14.68;7.63;;;17.80;99.90;;;;;;5022260;28;20034;-71
2022/06/25 01:52:30;;;;;;;12.85;7.22;;;17.90;99.90;;;;;;5021614;28;20041;-70
2022/06/25 01:54:55;;;;;;;10.80;7.38;;;17.90;99.90;;;;;;5021531;28;20486;-71
2022/06/25 01:57:21;;;;;;;11.60;6.70;;;17.90;99.90;;;;;;5022073;28;20061;-71
2022/06/25 01:59:48;;;;;;;13.32;7.40;;;17.90;99.90;;;;;;5021955;28;20026;-70
2022/06/25 02:02:14;;;;;;;15.73;7.22;;;17.90;99.90;;;;;;5021011;28;20048;-70
2022/06/25 02:04:39;;;;;;;10.95;7.22;;;17.90;99.90;;;;;;5024503;28;20026;-70
2022/06/25 02:07:06;;;;;;;14.90;8.27;;;17.90;99.90;;;;;;5025592;28;20022;-72
2022/06/25 02:09:32;;;;;;;12.45;7.35;;;17.90;99.90;;;;;;5025622;28;20112;-72
2022/06/25 02:11:57;;;;;;;20.48;7.97;;;17.90;99.90;;;;;;5025580;28;20513;-70
2022/06/25 02:14:24;;;;;;;14.93;8.32;;;17.90;99.90;;;;;;5023759;28;20160;-71
2022/06/25 02:16:50;;;;;;;18.42;7.80;;;17.80;99.90;;;;;;5025331;28;20029;-72
2022/06/25 02:19:15;;;;;;;16.55;8.68;;;17.90;99.90;;;;;;5025064;28;20026;-71
2022/06/25 02:21:41;;;;;;;11.38;7.72;;;17.80;99.90;;;;;;5025187;28;20469;-71
2022/06/25 02:24:07;;;;;;;14.45;7.20;;;17.70;99.90;;;;;;5025278;28;20540;-72
2022/06/25 02:26:33;;;;;;;13.43;7.93;;;17.70;99.90;;;;;;5025085;28;20021;-72
2022/06/25 02:28:59;;;;;;;13.73;7.55;;;17.80;99.90;;;;;;5025100;28;20038;-71
2022/06/25 02:31:24;;;;;;;12.07;7.32;;;17.70;99.90;;;;;;5023752;28;20030;-71
2022/06/25 02:33:50;;;;;;;13.38;7.45;;;17.70;99.90;;;;;;5025029;28;20022;-72
2022/06/25 02:36:16;;;;;;;14.88;7.95;;;17.70;99.90;;;;;;5024798;28;20124;-71
2022/06/25 02:38:41;;;;;;;12.95;7.00;;;17.70;99.90;;;;;;5024591;28;20030;-72
2022/06/25 02:41:07;;;;;;;10.20;6.57;;;17.70;99.90;;;;;;5025179;28;20069;-71
2022/06/25 02:43:34;;;;;;;13.50;7.97;;;17.70;99.90;;;;;;5024650;28;20128;-72
2022/06/25 02:45:59;;;;;;;12.52;7.38;;;17.60;99.90;;;;;;5024509;28;20497;-71
2022/06/25 02:48:25;;;;;;;10.00;6.50;;;17.60;99.90;;;;;;5024843;28;20095;-70
2022/06/25 02:50:50;;;;;;;17.42;9.50;;;17.60;99.90;;;;;;5023048;28;20018;-73
2022/06/25 02:53:16;;;;;;;11.27;7.68;;;17.70;99.90;;;;;;5023592;28;20026;-70
2022/06/25 03:01:11;;;;;;;12.52;8.13;;;17.70;99.90;;;;;;5024459;28;20033;-72
2022/06/25 03:03:36;;;;;;;14.50;7.88;;;17.70;99.90;;;;;;5024306;28;20063;-72
2022/06/25 03:06:03;;;;;;;16.35;9.05;;;17.70;99.90;;;;;;5024728;28;20089;-71
2022/06/25 03:08:29;;;;;;;14.05;8.35;;;17.70;99.90;;;;;;5024738;28;20054;-72
2022/06/25 03:10:54;;;;;;;17.98;8.57;;;17.70;99.90;;;;;;5024175;28;20026;-72
2022/06/25 03:13:20;;;;;;;16.02;7.82;;;17.70;99.90;;;;;;5024453;28;20460;-71
2022/06/25 03:15:45;;;;;;;13.45;8.55;;;17.70;99.90;;;;;;5023714;28;20041;-72
2022/06/25 03:18:12;;;;;;;14.55;9.25;;;17.70;99.90;;;;;;5024263;28;20092;-71
2022/06/25 03:20:38;;;;;;;12.45;8.30;;;17.60;99.90;;;;;;5024220;28;20030;-72
2022/06/25 03:23:04;;;;;;;13.30;8.30;;;17.60;99.90;;;;;;5023655;28;20029;-71
2022/06/25 03:25:29;;;;;;;13.30;7.72;;;17.70;99.90;;;;;;5024301;28;20041;-72
2022/06/25 03:27:56;;;;;;;18.15;8.93;;;17.70;99.90;;;;;;5024215;28;20014;-70
2022/06/25 03:30:21;;;;;;;13.98;7.82;;;17.70;99.90;;;;;;5023925;28;20148;-71
2022/06/25 03:32:47;;;;;;;15.98;8.75;;;17.70;99.90;;;;;;5022801;28;20053;-69
2022/06/25 03:35:12;;;;;;;14.48;8.93;;;17.70;99.90;;;;;;5024003;28;20034;-71
2022/06/25 03:37:39;;;;;;;14.23;8.73;;;17.70;99.90;;;;;;5023994;28;20037;-72
2022/06/25 03:40:05;;;;;;;13.10;7.88;;;17.70;99.90;;;;;;5023679;28;20022;-71
2022/06/25 03:42:31;;;;;;;17.70;8.75;;;17.70;99.90;;;;;;5024180;28;20241;-72
2022/06/25 03:44:57;;;;;;;11.75;7.10;;;17.70;99.90;;;;;;5021766;28;20021;-70
2022/06/25 03:47:23;;;;;;;13.90;8.18;;;17.70;99.90;;;;;;5023775;28;20540;-69
2022/06/25 03:49:49;;;;;;;15.85;9.25;;;17.70;99.90;;;;;;5023639;28;20030;-72
2022/06/25 03:52:15;;;;;;;14.50;8.77;;;17.70;99.90;;;;;;5023304;28;20026;-70
2022/06/25 03:54:41;;;;;;;16.25;9.55;;;17.70;99.90;;;;;;5023754;28;20029;-71
2022/06/25 03:57:07;;;;;;;16.98;8.65;;;17.80;99.90;;;;;;5023363;28;20026;-70
2022/06/25 03:59:33;;;;;;;13.85;8.90;;;17.70;99.90;;;;;;5023415;28;20030;-70
2022/06/25 04:01:58;;;;;;;17.17;9.07;;;17.70;99.90;;;;;;5023353;28;20081;-71
2022/06/25 04:04:24;;;;;;;16.15;7.55;;;17.60;99.90;;;;;;5023437;28;20030;-71
2022/06/25 04:06:49;;;;;;;17.95;9.52;;;17.70;99.90;;;;;;5023260;28;20025;-70
2022/06/25 04:09:15;;;;;;;17.20;9.07;;;17.70;99.90;;;;;;5023130;28;20021;-71
2022/06/25 04:11:41;;;;;;;13.52;8.40;;;17.70;99.90;;;;;;5023143;28;20026;-72
2022/06/25 04:14:09;;;;;;;14.00;8.63;;;17.70;99.90;;;;;;5023466;28;20033;-71
2022/06/25 04:16:35;;;;;;;17.00;8.65;;;17.70;99.90;;;;;;5023105;28;20044;-72
2022/06/25 04:19:00;;;;;;;18.45;8.80;;;17.70;99.90;;;;;;5022756;28;20026;-71
2022/06/25 04:21:27;;;;;;;23.50;9.75;;;17.70;99.90;;;;;;5022975;28;20044;-71
2022/06/25 04:23:52;;;;;;;15.38;9.23;;;17.80;99.90;;;;;;5023002;28;20022;-70
2022/06/25 04:26:18;;;;;;;18.10;8.75;;;17.80;99.90;;;;;;5022052;28;20111;-72
2022/06/25 04:31:28;;;;;;;17.38;8.68;;;17.80;99.90;;;;;;5022469;28;20080;-70
2022/06/25 04:33:53;;;;;;;19.45;9.18;;;17.90;99.90;;;;;;5022456;28;20049;-70
2022/06/25 04:36:19;;;;;;;15.48;8.23;;;17.80;99.90;;;;;;5022927;28;20073;-71
2022/06/25 04:38:45;;;;;;;19.00;9.82;;;17.90;99.90;;;;;;5022846;28;20069;-71
2022/06/25 04:41:11;;;;;;;15.55;8.95;;;17.90;99.90;;;;;;5022508;28;20382;-71
2022/06/25 04:43:37;;;;;;;16.80;10.40;;;17.90;99.90;;;;;;5022901;28;20022;-72
2022/06/25 04:46:03;;;;;;;18.70;10.15;;;17.90;99.90;;;;;;5022777;28;20050;-71
2022/06/25 04:48:28;;;;;;;17.42;9.40;;;18.00;99.90;;;;;;5022650;28;20040;-71
2022/06/25 04:50:54;;;;;;;17.40;9.15;;;17.90;99.90;;;;;;5022609;28;20018;-71
2022/06/25 04:53:19;;;;;;;20.85;9.95;;;18.00;99.90;;;;;;5022508;28;20106;-71
2022/06/25 04:55:48;;;;;;;20.38;9.35;;;18.10;99.90;;;;;;5021536;28;20030;-72
2022/06/25 04:58:13;;;;;;;16.10;9.60;;;18.10;99.90;;;;;;5020560;28;20026;-71
2022/06/25 05:00:40;;;;;;;17.08;11.07;;;18.20;99.90;;;;;;5022285;28;20032;-73
2022/06/25 05:03:07;;;;;;;16.60;9.20;;;18.30;99.90;;;;;;5021915;28;20034;-72
2022/06/25 05:05:39;;;;;;;17.20;8.63;;;18.30;99.90;;;;;;5022645;28;20611;-74
2022/06/25 05:08:06;;;;;;;25.20;10.60;;;18.40;99.90;;;;;;5020334;28;20033;-70
2022/06/25 05:10:32;;;;;;;14.38;9.20;;;18.50;99.90;;;;;;5020844;28;20034;-70
2022/06/25 05:13:13;;;;;;;16.63;9.05;;;18.60;99.90;;;;;;5021371;28;20113;-70
2022/06/25 05:15:41;;;;;;;18.70;8.02;;;18.70;99.90;;;;;;5018993;28;20049;-70
2022/06/25 05:18:11;;;;;;;16.65;9.30;;;18.80;99.90;;;;;;5022347;28;20052;-73
2022/06/25 05:20:38;;;;;;;18.42;10.35;;;18.80;99.90;;;;;;5017467;28;20042;-68
2022/06/25 05:23:04;;;;;;;16.52;9.38;;;18.90;99.90;;;;;;5021852;28;20030;-70
2022/06/25 05:25:30;;;;;;;13.82;8.07;;;19.00;99.90;;;;;;5019965;28;20117;-71
2022/06/25 05:27:55;;;;;;;20.23;9.65;;;19.10;99.90;;;;;;5020512;28;20041;-69
2022/06/25 05:30:21;;;;;;;17.10;8.60;;;19.10;99.90;;;;;;5020904;28;20026;-71
2022/06/25 05:32:47;;;;;;;16.90;8.18;;;19.30;99.90;;;;;;5020762;28;20030;-69
2022/06/25 05:35:12;;;;;;;15.93;8.02;;;19.30;99.90;;;;;;5021706;28;20041;-70
2022/06/25 05:37:38;;;;;;;13.00;7.18;;;19.40;99.90;;;;;;5022759;28;20026;-70
2022/06/25 05:40:05;;;;;;;14.13;7.65;;;19.40;99.90;;;;;;5022454;28;20034;-69
2022/06/25 05:42:30;;;;;;;20.90;8.30;;;19.50;99.90;;;;;;5022568;28;20037;-69
2022/06/25 05:44:56;;;;;;;11.23;6.78;;;19.50;99.90;;;;;;5025074;28;20848;-72
2022/06/25 05:47:21;;;;;;;13.98;7.35;;;19.60;99.90;;;;;;5028063;28;20030;-71
2022/06/25 05:49:47;;;;;;;10.70;5.85;;;19.60;99.90;;;;;;5027734;28;20109;-69
2022/06/25 05:52:13;;;;;;;10.50;6.80;;;19.70;99.90;;;;;;5027247;28;20687;-69
2022/06/25 05:54:39;;;;;;;12.02;6.32;;;19.80;99.90;;;;;;5027534;28;20029;-69
2022/06/25 05:57:07;;;;;;;21.30;6.30;;;19.80;99.90;;;;;;5028154;28;20088;-71
2022/06/25 05:59:33;;;;;;;8.82;5.60;;;19.90;99.90;;;;;;5027244;28;20022;-72
2022/06/25 06:01:59;;;;;;;9.10;5.20;;;19.90;99.90;;;;;;5027647;28;20041;-72
2022/06/25 06:04:24;;;;;;;11.48;6.20;;;19.90;99.90;;;;;;5026120;28;20022;-70
2022/06/25 06:06:51;;;;;;;9.20;5.50;;;20.00;99.90;;;;;;5026421;28;20022;-69
2022/06/25 06:09:17;;;;;;;13.45;6.93;;;20.10;99.90;;;;;;5026585;28;20038;-72
2022/06/25 06:11:42;;;;;;;14.23;6.55;;;20.10;99.90;;;;;;5027201;28;20026;-71
2022/06/25 06:14:08;;;;;;;11.25;5.88;;;20.20;99.90;;;;;;5026807;28;20077;-69
2022/06/25 06:16:34;;;;;;;10.23;5.80;;;20.20;99.90;;;;;;5026465;28;20520;-70
2022/06/25 06:19:00;;;;;;;7.78;4.97;;;20.20;99.90;;;;;;5027424;28;20026;-68
2022/06/25 06:21:25;;;;;;;7.65;5.60;;;20.30;99.90;;;;;;5026850;28;20029;-71
2022/06/25 06:23:51;;;;;;;10.68;5.88;;;20.30;99.90;;;;;;5026713;28;21220;-70
2022/06/25 06:26:17;;;;;;;8.98;4.78;;;20.30;99.90;;;;;;5026925;28;20048;-70
2022/06/25 06:28:43;;;;;;;21.00;6.05;;;20.40;99.90;;;;;;5026035;28;20076;-71
2022/06/25 06:31:09;;;;;;;12.88;5.72;;;20.50;99.90;;;;;;5025138;28;20113;-69
2022/06/25 06:33:35;;;;;;;7.53;4.60;;;20.50;99.90;;;;;;5024374;28;20148;-69
2022/06/25 06:36:01;;;;;;;13.30;5.85;;;20.50;99.90;;;;;;5027727;28;20034;-68
2022/06/25 06:38:27;;;;;;;6.38;3.85;;;20.60;99.90;;;;;;5024757;28;20597;-69
2022/06/25 06:40:52;;;;;;;8.07;3.45;;;20.60;99.90;;;;;;5027427;28;20113;-67
2022/06/25 06:43:18;;;;;;;6.82;4.20;;;20.70;99.90;;;;;;5027421;28;20094;-69
2022/06/25 06:45:44;;;;;;;6.10;3.78;;;20.80;99.90;;;;;;5027652;28;20081;-70
2022/06/25 06:48:09;;;;;;;6.80;4.35;;;20.80;99.90;;;;;;5026253;28;20034;-72
2022/06/25 06:50:35;;;;;;;8.68;3.92;;;20.90;99.90;;;;;;5022454;28;20026;-68
2022/06/25 06:53:01;;;;;;;4.82;3.25;;;20.90;99.90;;;;;;5021659;28;20088;-72
2022/06/25 06:55:26;;;;;;;5.47;3.35;;;21.00;99.90;;;;;;5022892;28;20057;-69
2022/06/25 06:57:52;;;;;;;7.70;3.95;;;21.00;99.90;;;;;;5021810;28;20148;-69
2022/06/25 07:00:17;;;;;;;7.97;4.13;;;21.10;99.90;;;;;;5024132;28;20026;-70
2022/06/25 07:02:43;;;;;;;6.10;3.10;;;21.20;99.90;;;;;;5022456;28;20049;-68
2022/06/25 07:05:09;;;;;;;6.57;3.65;;;21.20;99.90;;;;;;5024010;28;20414;-71
2022/06/25 07:07:35;;;;;;;6.43;2.65;;;21.30;99.90;;;;;;5023662;28;20022;-71
2022/06/25 07:10:00;;;;;;;5.45;3.03;;;21.30;99.90;;;;;;5022682;28;20034;-70
2022/06/25 07:12:26;;;;;;;4.28;2.58;;;21.40;99.90;;;;;;5023198;28;20393;-69
2022/06/25 07:14:52;;;;;;;4.50;2.67;;;21.40;99.90;;;;;;5024054;28;20049;-68
2022/06/25 07:17:17;;;;;;;6.43;2.72;;;21.50;99.90;;;;;;5023837;28;20037;-69
2022/06/25 07:19:43;;;;;;;7.65;2.00;;;21.60;99.90;;;;;;5021621;28;20061;-77
2022/06/25 07:22:09;;;;;;;4.60;2.67;;;21.60;99.90;;;;;;5019575;28;20046;-69
2022/06/25 07:24:35;;;;;;;3.72;2.53;;;21.70;99.90;;;;;;5023909;28;20041;-68
2022/06/25 07:27:00;;;;;;;3.85;2.17;;;21.80;99.90;;;;;;5023442;28;20026;-69
2022/06/25 07:29:26;;;;;;;5.75;2.55;;;21.80;99.90;;;;;;5023949;28;20022;-67
2022/06/25 07:31:52;;;;;;;3.95;2.15;;;21.80;99.90;;;;;;5022193;28;20117;-69
2022/06/25 07:34:17;;;;;;;4.57;2.67;;;21.90;99.90;;;;;;5022472;28;20033;-71
2022/06/25 07:36:43;;;;;;;3.75;2.13;;;22.00;99.90;;;;;;5023636;28;20070;-70
2022/06/25 07:39:09;;;;;;;6.60;3.00;;;22.00;99.90;;;;;;5023411;28;20018;-72
2022/06/25 07:41:34;;;;;;;6.15;2.67;;;22.10;99.90;;;;;;5023703;28;20036;-69
2022/06/25 07:44:00;;;;;;;5.38;2.72;;;22.10;99.90;;;;;;5021948;28;20034;-69
2022/06/25 07:46:26;;;;;;;5.90;2.55;;;22.10;99.90;;;;;;5023125;28;20042;-69
2022/06/25 07:48:52;;;;;;;9.77;4.20;;;22.20;99.90;;;;;;5022762;28;20036;-70
2022/06/25 07:54:02;;;;;;;;;;;22.40;99.90;;;;;;5024261;28;20496;-72
2022/06/25 07:56:28;;;;;;;5.70;2.67;;;22.50;99.90;;;;;;5023348;28;19917;-71
2022/06/25 07:58:54;;;;;;;6.38;3.38;;;22.60;99.90;;;;;;5023083;28;20056;-69
2022/06/25 08:01:20;;;;;;;10.68;2.55;;;22.60;99.90;;;;;;5021982;28;20026;-70
2022/06/25 08:03:48;;;;;;;3.58;2.40;;;22.60;99.90;;;;;;5023416;28;20014;-75
2022/06/25 08:06:15;;;;;;;10.00;1.95;;;22.70;99.90;;;;;;5023277;28;20026;-70
2022/06/25 08:08:40;;;;;;;4.07;2.13;;;22.70;99.90;;;;;;5023340;28;20473;-70
2022/06/25 08:11:06;;;;;;;4.60;2.42;;;22.80;99.90;;;;;;5022614;28;20052;-72
2022/06/25 08:13:33;;;;;;;8.23;2.47;;;22.80;99.90;;;;;;5023627;28;20038;-71
2022/06/25 08:15:59;;;;;;;4.30;2.47;;;22.90;99.90;;;;;;5022775;28;20156;-70
2022/06/25 08:18:25;;;;;;;4.10;2.08;;;23.10;99.90;;;;;;5021983;28;20480;-71
2022/06/25 08:20:51;;;;;;;5.25;2.63;;;23.20;99.90;;;;;;5021724;28;20030;-69
2022/06/25 08:23:17;;;;;;;5.78;3.22;;;23.20;99.90;;;;;;5020764;28;20049;-71
2022/06/25 08:25:42;;;;;;;7.05;2.95;;;23.40;99.90;;;;;;5022676;28;20026;-71
2022/06/25 08:28:08;;;;;;;13.45;2.70;;;23.40;99.90;;;;;;5023301;28;20038;-69
2022/06/25 08:30:35;;;;;;;5.43;2.85;;;23.50;99.90;;;;;;5021520;28;20082;-71
2022/06/25 08:33:01;;;;;;;7.97;3.53;;;23.70;99.90;;;;;;5017991;28;20691;-72
2022/06/25 08:35:27;;;;;;;5.38;2.72;;;23.80;99.90;;;;;;5019522;28;20046;-69
2022/06/25 08:37:53;;;;;;;5.05;3.15;;;23.80;99.90;;;;;;5016429;28;20037;-68
2022/06/25 08:40:20;;;;;;;9.25;3.35;;;23.90;99.90;;;;;;5018820;28;20216;-70
2022/06/25 08:42:49;;;;;;;5.85;2.90;;;23.80;99.90;;;;;;5022035;28;20442;-70
2022/06/25 08:45:17;;;;;;;4.07;1.98;;;23.70;99.90;;;;;;5021432;28;20083;-70
2022/06/25 08:47:47;;;;;;;3.70;1.98;;;23.80;99.90;;;;;;5021520;28;20050;-71
2022/06/25 08:50:15;;;;;;;2.03;1.50;;;23.90;99.90;;;;;;5022147;28;20045;-68
2022/06/25 08:53:00;;;;;;;2.80;2.17;;;23.90;99.90;;;;;;5022286;28;20508;-69
2022/06/25 08:55:39;;;;;;;2.47;1.98;;;24.00;99.90;;;;;;5021546;28;20053;-69
2022/06/25 08:58:06;;;;;;;3.30;2.20;;;24.00;99.90;;;;;;5022322;28;20025;-70
2022/06/25 09:00:33;;;;;;;2.75;1.83;;;23.90;99.90;;;;;;5021301;28;20436;-71
2022/06/25 09:03:00;;;;;;;15.85;2.83;;;23.90;99.90;;;;;;5018831;28;20033;-69
2022/06/25 09:05:25;;;;;;;7.57;2.40;;;24.00;99.90;;;;;;5018381;28;20021;-70
2022/06/25 09:07:56;;;;;;;4.60;2.28;;;24.10;99.90;;;;;;5018059;28;20125;-71
2022/06/25 09:10:24;;;;;;;7.35;2.53;;;24.30;99.90;;;;;;5020161;28;20030;-71
2022/06/25 09:12:54;;;;;;;2.38;1.80;;;24.40;99.90;;;;;;5020592;28;20030;-71
2022/06/25 09:15:22;;;;;;;6.30;2.83;;;24.50;99.90;;;;;;5017750;28;20128;-70
2022/06/25 09:17:52;;;;;;;4.82;2.38;;;24.70;99.90;;;;;;5015698;28;20022;-69
2022/06/25 09:20:19;;;;;;;3.72;2.42;;;24.70;99.90;;;;;;5018565;28;20060;-69
2022/06/25 09:23:05;;;;;;;3.97;2.50;;;24.80;99.90;;;;;;5020607;28;20072;-70
2022/06/25 09:25:33;;;;;;;5.38;2.65;;;24.80;99.90;;;;;;5019924;28;20026;-70
2022/06/25 09:27:59;;;;;;;6.70;2.00;;;24.70;99.90;;;;;;5017187;28;20022;-70
2022/06/25 09:30:30;;;;;;;4.68;2.25;;;24.60;99.90;;;;;;5019605;28;20040;-68
2022/06/25 09:32:57;;;;;;;3.38;1.83;;;24.60;99.90;;;;;;5020504;28;20041;-74
2022/06/25 09:35:38;;;;;;;11.63;2.70;;;24.70;99.90;;;;;;5020250;28;20045;-72
2022/06/25 09:38:17;;;;;;;4.53;1.95;;;24.80;99.90;;;;;;5018998;28;20494;-69
2022/06/25 09:40:57;;;;;;;3.17;2.15;;;25.00;99.90;;;;;;5028794;28;20034;-73
2022/06/25 09:43:37;;;;;;;3.95;2.40;;;25.00;99.90;;;;;;5018481;28;20025;-72
2022/06/25 09:46:31;;;;;;;3.30;2.10;;;25.00;99.90;;;;;;5017687;28;20049;-72
2022/06/25 09:49:00;;;;;;;5.82;2.38;;;25.00;99.90;;;;;;5021295;28;20045;-72
2022/06/25 09:51:29;;;;;;;3.28;1.88;;;25.00;99.90;;;;;;5021481;28;20068;-70
2022/06/25 09:53:55;;;;;;;2.78;1.75;;;25.00;99.90;;;;;;5021326;28;20113;-69
2022/06/25 09:56:25;;;;;;;1.50;1.20;;;25.20;99.90;;;;;;5020832;28;20041;-72
2022/06/25 09:58:53;;;;;;;3.28;1.92;;;25.10;99.90;;;;;;5019749;28;20033;-70
2022/06/25 10:01:23;;;;;;;2.33;1.88;;;25.00;99.90;;;;;;5020252;28;20028;-70
2022/06/25 10:03:49;;;;;;;2.63;2.05;;;25.00;99.90;;;;;;5021045;28;20053;-71
2022/06/25 10:06:16;;;;;;;3.50;2.30;;;24.90;99.90;;;;;;5021687;28;20025;-71
2022/06/25 10:08:49;;;;;;;1.70;1.10;;;24.90;99.90;;;;;;5021644;28;20033;-70
2022/06/25 10:11:23;;;;;;;2.28;1.42;;;24.80;99.90;;;;;;5020796;28;20038;-74
2022/06/25 10:13:51;;;;;;;3.60;1.63;;;24.90;99.90;;;;;;5019086;28;20113;-72
2022/06/25 10:16:20;;;;;;;2.13;1.70;;;25.00;99.90;;;;;;5020354;28;20072;-71
2022/06/25 10:18:50;;;;;;;4.25;1.65;;;25.20;99.90;;;;;;5016740;28;20033;-70
2022/06/25 10:21:21;;;;;;;2.20;1.40;;;25.20;99.90;;;;;;5018309;28;20022;-70
2022/06/25 10:23:53;;;;;;;5.85;1.88;;;25.20;99.90;;;;;;5019556;28;20060;-70
2022/06/25 10:26:20;;;;;;;2.50;1.35;;;25.40;99.90;;;;;;5023489;28;20033;-69
2022/06/25 10:28:50;;;;;;;5.57;1.25;;;25.60;99.90;;;;;;5023673;28;20025;-70
2022/06/25 10:31:20;;;;;;;1.67;1.25;;;25.70;99.90;;;;;;5024032;28;20032;-73
2022/06/25 10:34:02;;;;;;;2.70;1.23;;;25.60;99.90;;;;;;5023407;28;20026;-70
2022/06/25 10:36:48;;;;;;;4.47;1.42;;;25.50;99.90;;;;;;5024247;28;20077;-69
2022/06/25 10:39:23;;;;;;;8.88;1.10;;;25.50;99.90;;;;;;5022463;28;20034;-72
2022/06/25 10:45:16;;;;;;;2.85;1.33;;;25.90;99.90;;;;;;5023291;28;20413;-72
2022/06/25 10:48:06;;;;;;;1.42;0.90;;;26.10;99.90;;;;;;5021225;28;20076;-73
2022/06/25 10:50:36;;;;;;;1.35;0.93;;;26.20;99.90;;;;;;5024214;28;20536;-69
2022/06/25 10:53:23;;;;;;;1.60;1.02;;;26.30;99.90;;;;;;5020722;28;20064;-71
2022/06/25 10:55:49;;;;;;;1.52;1.02;;;26.50;99.90;;;;;;5024461;28;20092;-73
2022/06/25 10:58:16;;;;;;;1.10;0.80;;;26.60;99.90;;;;;;5022740;28;20018;-69
2022/06/25 11:00:47;;;;;;;3.92;0.90;;;26.70;99.90;;;;;;5010429;28;20028;-70
2022/06/25 11:03:14;;;;;;;1.73;1.10;;;26.90;99.90;;;;;;5022567;28;20026;-70
2022/06/25 11:05:48;;;;;;;1.77;0.80;;;27.10;99.90;;;;;;5022730;28;20033;-72
2022/06/25 11:08:14;;;;;;;1.25;1.08;;;27.30;99.90;;;;;;5023830;28;20025;-68
2022/06/25 11:10:40;;;;;;;1.08;0.88;;;27.50;99.90;;;;;;5022798;28;20088;-70
2022/06/25 11:13:08;;;;;;;1.77;1.08;;;27.60;99.90;;;;;;5022939;28;20026;-70
2022/06/25 11:15:39;;;;;;;1.75;0.77;;;27.70;99.90;;;;;;5022734;28;20046;-70
2022/06/25 11:18:12;;;;;;;0.98;0.80;;;27.50;99.90;;;;;;5019836;28;20053;-68
2022/06/25 11:20:39;;;;;;;0.82;0.70;;;27.40;99.90;;;;;;5023055;28;20037;-70
2022/06/25 11:23:09;;;;;;;1.80;0.85;;;27.40;99.90;;;;;;5021342;28;20060;-69
2022/06/25 11:28:53;;;;;;;2.05;1.23;;;28.00;99.90;;;;;;5023071;28;20056;-70
2022/06/25 11:31:21;;;;;;;1.10;0.77;;;28.20;99.90;;;;;;5022783;28;20029;-71
2022/06/25 11:33:49;;;;;;;0.70;0.65;;;28.30;99.90;;;;;;5023138;28;20033;-70
2022/06/25 11:36:15;;;;;;;1.02;0.80;;;28.40;99.90;;;;;;5021138;28;20544;-71
2022/06/25 11:38:43;;;;;;;3.22;0.70;;;28.20;99.90;;;;;;5036950;28;20050;-70
2022/06/25 11:41:26;;;;;;;1.40;0.70;;;27.90;99.90;;;;;;5021703;28;20462;-70
2022/06/25 11:43:55;;;;;;;1.42;0.70;;;27.70;99.90;;;;;;5020288;28;20034;-69
2022/06/25 11:46:22;;;;;;;5.68;1.00;;;27.70;99.90;;;;;;5022092;28;20048;-70
2022/06/25 11:48:50;;;;;;;2.03;0.70;;;27.90;99.90;;;;;;5020762;28;20045;-71
2022/06/25 11:51:33;;;;;;;0.82;0.70;;;28.10;99.90;;;;;;5023205;28;20026;-69
2022/06/25 11:54:06;;;;;;;1.63;1.00;;;28.20;99.90;;;;;;5022866;28;20055;-70
2022/06/25 11:56:32;;;;;;;1.02;0.68;;;28.40;99.90;;;;;;5022543;28;20128;-73
2022/06/25 11:58:57;;;;;;;0.95;0.80;;;28.50;99.90;;;;;;5023232;28;20025;-71
2022/06/25 12:01:28;;;;;;;1.38;0.90;;;28.20;99.90;;;;;;5023265;28;20076;-69
2022/06/25 12:03:54;;;;;;;1.23;1.00;;;28.00;99.90;;;;;;5021868;28;20060;-70
2022/06/25 12:06:22;;;;;;;0.70;0.70;;;27.90;99.90;;;;;;5021706;28;20530;-69
2022/06/25 12:08:48;;;;;;;3.58;0.70;;;27.60;99.90;;;;;;5021003;28;20033;-69
2022/06/25 12:11:13;;;;;;;6.80;1.00;;;27.50;99.90;;;;;;5021485;28;20017;-69
2022/06/25 12:13:39;;;;;;;1.25;1.05;;;27.60;99.90;;;;;;5021155;28;20089;-71
2022/06/25 12:16:08;;;;;;;1.27;1.00;;;27.90;99.90;;;;;;5022756;28;20042;-70
2022/06/25 12:18:40;;;;;;;1.13;1.02;;;27.90;99.90;;;;;;5022428;28;20026;-73
2022/06/25 12:21:12;;;;;;;2.40;1.10;;;28.10;99.90;;;;;;5022195;28;20025;-72
2022/06/25 12:23:58;;;;;;;3.85;1.27;;;28.10;99.90;;;;;;5015896;28;20042;-72
2022/06/25 12:26:36;;;;;;;0.95;0.80;;;27.90;99.90;;;;;;5035237;28;20038;-72
2022/06/25 12:29:09;;;;;;;1.77;1.10;;;27.70;99.90;;;;;;5021315;28;20056;-71
2022/06/25 12:31:35;;;;;;;2.30;0.93;;;27.80;99.90;;;;;;5022641;28;20097;-68
2022/06/25 12:34:02;;;;;;;1.08;0.80;;;28.10;99.90;;;;;;5022230;28;20022;-70
2022/06/25 12:36:28;;;;;;;1.10;0.75;;;28.50;99.90;;;;;;5019746;28;20097;-69
2022/06/25 12:38:53;;;;;;;1.10;0.77;;;28.80;99.90;;;;;;5019125;28;20065;-69
2022/06/25 12:41:19;;;;;;;1.50;0.95;;;29.10;99.90;;;;;;5019970;28;20054;-70
2022/06/25 12:43:49;;;;;;;2.30;0.80;;;29.40;99.90;;;;;;5020977;28;20044;-70
2022/06/25 12:46:19;;;;;;;0.82;0.65;;;29.40;99.90;;;;;;5022236;28;20068;-69
2022/06/25 12:48:45;;;;;;;1.20;0.60;;;29.30;99.90;;;;;;5021957;28;20037;-70
2022/06/25 12:51:15;;;;;;;1.30;1.00;;;29.20;99.90;;;;;;5021382;28;20137;-73
2022/06/25 12:53:44;;;;;;;2.50;1.00;;;29.30;99.90;;;;;;5022472;28;20026;-70
2022/06/25 12:56:11;;;;;;;5.03;0.63;;;29.40;99.90;;;;;;5020859;28;20038;-67
2022/06/25 12:58:41;;;;;;;1.15;0.88;;;29.40;99.90;;;;;;5018414;28;20026;-68
2022/06/25 13:01:21;;;;;;;3.90;1.02;;;29.40;99.90;;;;;;5020541;28;20122;-69
2022/06/25 13:03:47;;;;;;;0.95;0.65;;;29.20;99.90;;;;;;5022052;28;20061;-68
2022/06/25 13:06:14;;;;;;;0.63;0.50;;;28.90;99.90;;;;;;5019969;28;20036;-70